createdAt,value
2022-10-22T00:00:08.920Z,14.40
2022-10-22T00:01:09.968Z,14.35
2022-10-22T00:01:49.925Z,14.33
2022-10-22T00:02:30.066Z,14.34
2022-10-22T00:03:10.937Z,14.35
2022-10-22T00:03:57.981Z,14.39
2022-10-22T00:04:54.439Z,14.35
2022-10-22T00:05:48.925Z,14.37
2022-10-22T00:06:42.920Z,14.30
2022-10-22T00:07:37.119Z,14.29
2022-10-22T00:08:32.011Z,14.37
2022-10-22T00:09:20.988Z,14.33
2022-10-22T00:09:55.058Z,14.23
2022-10-22T00:10:44.953Z,14.38
2022-10-22T00:11:24.986Z,14.46
2022-10-22T00:12:12.949Z,14.32
2022-10-22T00:12:46.964Z,14.37
2022-10-22T00:13:33.938Z,14.42
2022-10-22T00:14:07.999Z,14.26
2022-10-22T00:14:49.916Z,14.35
2022-10-22T00:15:43.913Z,14.38
2022-10-22T00:16:37.922Z,14.34
2022-10-22T00:17:31.930Z,14.33
2022-10-22T00:18:25.896Z,14.34
2022-10-22T00:19:19.909Z,14.35
2022-10-22T00:20:06.925Z,14.14
2022-10-22T00:20:41.018Z,14.28
2022-10-22T00:21:27.872Z,14.20
2022-10-22T00:22:05.609Z,14.21
2022-10-22T00:22:52.940Z,14.07
2022-10-22T00:23:26.972Z,14.12
2022-10-22T00:24:13.884Z,14.20
2022-10-22T00:24:47.947Z,13.99
2022-10-22T00:25:29.027Z,14.08
2022-10-22T00:26:08.948Z,14.00
2022-10-22T00:26:49.861Z,13.99
2022-10-22T00:27:29.962Z,13.99
2022-10-22T00:28:10.873Z,14.02
2022-10-22T00:28:50.994Z,14.14
2022-10-22T00:29:31.909Z,14.14
2022-10-22T00:30:13.019Z,14.10
2022-10-22T00:30:53.921Z,14.12
2022-10-22T00:31:34.125Z,14.02
2022-10-22T00:32:14.878Z,14.03
2022-10-22T00:32:54.962Z,14.09
2022-10-22T00:33:36.900Z,13.97
2022-10-22T00:34:18.020Z,14.04
2022-10-22T00:34:57.895Z,13.98
2022-10-22T00:35:37.990Z,14.08
2022-10-22T00:36:18.936Z,14.04
2022-10-22T00:36:59.936Z,14.07
2022-10-22T00:37:40.892Z,14.07
2022-10-22T00:38:21.984Z,13.98
2022-10-22T00:39:03.116Z,14.04
2022-10-22T00:39:43.164Z,14.02
2022-10-22T00:40:22.893Z,14.00
2022-10-22T00:41:05.027Z,13.84
2022-10-22T00:41:46.003Z,14.03
2022-10-22T00:42:37.838Z,14.02
2022-10-22T00:43:20.877Z,13.95
2022-10-22T00:44:08.126Z,13.96
2022-10-22T00:45:18.855Z,13.95
2022-10-22T00:45:58.973Z,13.96
2022-10-22T00:46:39.864Z,14.00
2022-10-22T00:47:22.136Z,14.00
2022-10-22T00:48:11.022Z,14.02
2022-10-22T00:48:58.875Z,13.94
2022-10-22T00:49:32.958Z,13.82
2022-10-22T00:50:25.873Z,13.86
2022-10-22T00:51:10.943Z,13.91
2022-10-22T00:51:57.880Z,13.94
2022-10-22T00:52:40.191Z,13.85
2022-10-22T00:53:50.858Z,13.92
2022-10-22T00:54:44.870Z,13.79
2022-10-22T00:55:40.885Z,13.87
2022-10-22T00:56:36.894Z,13.75
2022-10-22T00:57:31.889Z,13.70
2022-10-22T00:58:12.915Z,13.76
2022-10-22T00:59:01.052Z,13.75
2022-10-22T00:59:41.835Z,13.65
2022-10-22T01:00:22.922Z,13.79
2022-10-22T01:01:03.954Z,13.86
2022-10-22T01:01:45.224Z,13.81
2022-10-22T01:02:25.880Z,13.77
2022-10-22T01:03:07.975Z,13.78
2022-10-22T01:03:47.899Z,13.86
2022-10-22T01:04:27.924Z,13.81
2022-10-22T01:05:08.844Z,13.81
2022-10-22T01:06:10.933Z,13.87
2022-10-22T01:06:50.849Z,13.93
2022-10-22T01:07:31.978Z,13.91
2022-10-22T01:08:13.850Z,13.87
2022-10-22T01:09:19.890Z,13.97
2022-10-22T01:10:35.869Z,13.89
2022-10-22T01:11:40.912Z,13.95
2022-10-22T01:12:56.861Z,14.02
2022-10-22T01:14:32.959Z,13.88
2022-10-22T01:15:45.864Z,13.85
2022-10-22T01:17:13.904Z,13.93
2022-10-22T01:18:50.008Z,13.68
2022-10-22T01:20:10.851Z,13.83
2022-10-22T01:21:44.878Z,13.87
2022-10-22T01:22:45.870Z,13.95
2022-10-22T01:24:16.816Z,13.94
2022-10-22T01:25:49.924Z,13.98
2022-10-22T01:27:17.905Z,13.90
2022-10-22T01:28:46.880Z,13.89
2022-10-22T01:29:53.024Z,14.02
2022-10-22T01:30:47.821Z,14.00
2022-10-22T01:31:28.841Z,14.02
2022-10-22T01:32:17.885Z,14.03
2022-10-22T01:33:08.817Z,14.09
2022-10-22T01:33:50.885Z,14.10
2022-10-22T01:34:32.822Z,14.06
2022-10-22T01:35:19.934Z,14.02
2022-10-22T01:36:00.861Z,14.04
2022-10-22T01:36:42.907Z,13.93
2022-10-22T01:37:24.832Z,14.03
2022-10-22T01:38:08.861Z,14.04
2022-10-22T01:38:49.792Z,14.08
2022-10-22T01:39:30.934Z,14.05
2022-10-22T01:40:12.830Z,14.16
2022-10-22T01:40:53.908Z,14.04
2022-10-22T01:41:35.832Z,14.01
2022-10-22T01:42:15.962Z,13.98
2022-10-22T01:43:22.837Z,13.99
2022-10-22T01:44:02.885Z,14.04
2022-10-22T01:44:43.803Z,14.08
2022-10-22T01:45:23.890Z,14.06
2022-10-22T01:46:08.783Z,14.03
2022-10-22T01:46:55.849Z,13.92
2022-10-22T01:47:57.825Z,14.06
2022-10-22T01:49:36.805Z,13.99
2022-10-22T01:50:45.812Z,13.85
2022-10-22T01:52:36.824Z,13.87
2022-10-22T01:54:12.812Z,13.76
2022-10-22T01:55:30.790Z,13.69
2022-10-22T01:57:05.801Z,13.57
2022-10-22T01:58:09.811Z,13.51
2022-10-22T01:59:20.836Z,13.54
2022-10-22T02:00:17.793Z,13.50
2022-10-22T02:01:00.934Z,13.54
2022-10-22T02:01:48.789Z,13.46
2022-10-22T02:03:02.848Z,13.40
2022-10-22T02:03:54.833Z,13.34
2022-10-22T02:05:10.927Z,13.24
2022-10-22T02:06:00.773Z,13.19
2022-10-22T02:06:41.860Z,13.19
2022-10-22T02:07:27.794Z,13.18
2022-10-22T02:08:21.858Z,13.14
2022-10-22T02:09:02.926Z,13.28
2022-10-22T02:09:43.912Z,13.28
2022-10-22T02:10:24.788Z,13.27
2022-10-22T02:11:05.867Z,13.20
2022-10-22T02:11:47.772Z,13.36
2022-10-22T02:12:28.872Z,13.38
2022-10-22T02:13:09.781Z,13.38
2022-10-22T02:14:07.843Z,13.28
2022-10-22T02:15:02.807Z,13.28
2022-10-22T02:15:58.779Z,13.23
2022-10-22T02:16:57.766Z,13.19
2022-10-22T02:17:52.779Z,13.18
2022-10-22T02:18:48.781Z,13.18
2022-10-22T02:19:34.836Z,13.15
2022-10-22T02:20:38.872Z,13.18
2022-10-22T02:21:19.777Z,13.13
2022-10-22T02:22:00.841Z,13.18
2022-10-22T02:22:43.858Z,13.11
2022-10-22T02:23:23.838Z,13.10
2022-10-22T02:24:04.764Z,13.13
2022-10-22T02:24:51.796Z,13.15
2022-10-22T02:25:52.787Z,13.01
2022-10-22T02:26:53.773Z,13.01
2022-10-22T02:28:05.803Z,12.94
2022-10-22T02:29:26.788Z,13.18
2022-10-22T02:30:24.846Z,13.19
2022-10-22T02:31:03.840Z,13.32
2022-10-22T02:31:52.761Z,13.23
2022-10-22T02:32:29.873Z,13.16
2022-10-22T02:33:25.762Z,13.23
2022-10-22T02:34:04.914Z,13.18
2022-10-22T02:34:52.796Z,13.21
2022-10-22T02:35:36.804Z,13.26
2022-10-22T02:36:31.785Z,13.17
2022-10-22T02:37:25.745Z,13.17
2022-10-22T02:38:20.737Z,13.22
2022-10-22T02:40:10.770Z,13.17
2022-10-22T02:40:57.793Z,13.19
2022-10-22T02:41:31.868Z,13.05
2022-10-22T02:42:19.762Z,13.13
2022-10-22T02:42:55.909Z,13.15
2022-10-22T02:43:55.737Z,13.16
2022-10-22T02:44:29.877Z,13.26
2022-10-22T02:45:17.769Z,13.28
2022-10-22T02:45:52.872Z,13.22
2022-10-22T02:46:33.795Z,13.19
2022-10-22T02:47:13.845Z,13.13
2022-10-22T02:47:54.740Z,13.23
2022-10-22T02:48:34.863Z,13.23
2022-10-22T02:49:14.741Z,13.32
2022-10-22T02:49:56.834Z,13.14
2022-10-22T02:50:36.751Z,13.34
2022-10-22T02:51:16.833Z,13.36
2022-10-22T02:51:57.775Z,13.32
2022-10-22T02:52:38.302Z,13.36
2022-10-22T02:53:18.752Z,13.25
2022-10-22T02:53:58.912Z,13.34
2022-10-22T02:54:38.732Z,13.26
2022-10-22T02:55:18.841Z,13.31
2022-10-22T02:55:58.733Z,13.26
2022-10-22T02:56:38.803Z,13.33
2022-10-22T02:58:04.813Z,13.28
2022-10-22T02:58:44.744Z,13.26
2022-10-22T02:59:24.865Z,13.26
2022-10-22T03:00:04.762Z,13.29
2022-10-22T03:00:44.863Z,13.27
2022-10-22T03:01:24.749Z,13.20
2022-10-22T03:02:04.851Z,13.24
2022-10-22T03:02:45.752Z,13.24
2022-10-22T03:03:25.892Z,13.37
2022-10-22T03:04:05.714Z,13.19
2022-10-22T03:04:45.873Z,13.24
2022-10-22T03:05:25.737Z,13.32
2022-10-22T03:06:05.813Z,13.39
2022-10-22T03:06:49.737Z,13.37
2022-10-22T03:07:29.785Z,13.44
2022-10-22T03:08:10.744Z,13.39
2022-10-22T03:08:50.834Z,13.51
2022-10-22T03:09:30.723Z,13.51
2022-10-22T03:10:11.863Z,13.43
2022-10-22T03:10:52.734Z,13.43
2022-10-22T03:11:32.809Z,13.48
2022-10-22T03:12:14.740Z,13.46
2022-10-22T03:12:54.907Z,13.54
2022-10-22T03:13:35.768Z,13.50
2022-10-22T03:14:18.846Z,13.53
2022-10-22T03:14:58.742Z,13.53
2022-10-22T03:15:38.778Z,13.57
2022-10-22T03:16:18.740Z,13.59
2022-10-22T03:16:58.790Z,13.58
2022-10-22T03:17:39.004Z,13.61
2022-10-22T03:18:19.819Z,13.52
2022-10-22T03:19:00.758Z,13.69
2022-10-22T03:19:42.034Z,13.71
2022-10-22T03:20:21.727Z,13.66
2022-10-22T03:21:36.787Z,13.76
2022-10-22T03:22:22.762Z,13.76
2022-10-22T03:23:03.795Z,13.77
2022-10-22T03:23:44.704Z,13.77
2022-10-22T03:24:30.780Z,13.82
2022-10-22T03:25:08.012Z,13.84
2022-10-22T03:25:55.789Z,13.51
2022-10-22T03:26:30.839Z,13.67
2022-10-22T03:27:19.721Z,13.68
2022-10-22T03:27:53.796Z,13.54
2022-10-22T03:28:42.742Z,13.70
2022-10-22T03:29:17.755Z,13.56
2022-10-22T03:29:59.730Z,13.71
2022-10-22T03:30:39.784Z,13.66
2022-10-22T03:31:19.704Z,13.61
2022-10-22T03:32:00.800Z,13.51
2022-10-22T03:32:40.741Z,13.56
2022-10-22T03:33:20.807Z,13.60
2022-10-22T03:34:00.697Z,13.58
2022-10-22T03:34:43.791Z,13.55
2022-10-22T03:35:23.809Z,13.61
2022-10-22T03:36:03.780Z,13.55
2022-10-22T03:36:44.707Z,13.48
2022-10-22T03:37:25.804Z,13.52
2022-10-22T03:38:07.731Z,13.53
2022-10-22T03:38:47.765Z,13.50
2022-10-22T03:39:29.733Z,13.52
2022-10-22T03:40:11.809Z,13.45
2022-10-22T03:40:52.722Z,13.40
2022-10-22T03:41:33.770Z,13.31
2022-10-22T03:42:14.713Z,13.42
2022-10-22T03:42:54.756Z,13.47
2022-10-22T03:43:34.721Z,13.50
2022-10-22T03:44:14.789Z,13.41
2022-10-22T03:44:54.742Z,13.50
2022-10-22T03:45:48.692Z,13.45
2022-10-22T03:46:28.720Z,13.52
2022-10-22T03:47:08.821Z,13.50
2022-10-22T03:47:48.710Z,13.47
2022-10-22T03:48:28.780Z,13.44
2022-10-22T03:49:09.689Z,13.38
2022-10-22T03:49:49.761Z,13.38
2022-10-22T03:50:29.692Z,13.48
2022-10-22T03:51:10.427Z,13.50
2022-10-22T03:51:50.781Z,13.45
2022-10-22T03:52:30.753Z,13.52
2022-10-22T03:53:11.714Z,13.48
2022-10-22T03:53:51.770Z,13.42
2022-10-22T03:54:31.726Z,13.56
2022-10-22T03:55:13.784Z,13.64
2022-10-22T03:55:53.691Z,13.66
2022-10-22T03:56:33.766Z,13.56
2022-10-22T03:57:14.759Z,13.59
2022-10-22T03:57:54.797Z,13.61
2022-10-22T03:59:15.687Z,13.51
2022-10-22T03:59:58.847Z,13.52
2022-10-22T04:00:43.649Z,13.58
2022-10-22T04:01:27.085Z,13.60
2022-10-22T04:02:09.963Z,13.54
2022-10-22T04:02:52.086Z,13.59
2022-10-22T04:03:28.780Z,13.57
2022-10-22T04:04:15.676Z,13.62
2022-10-22T04:04:50.737Z,13.69
2022-10-22T04:05:40.695Z,13.73
2022-10-22T04:06:19.774Z,13.76
2022-10-22T04:07:06.705Z,13.76
2022-10-22T04:07:41.144Z,13.65
2022-10-22T04:08:22.705Z,13.81
2022-10-22T04:09:02.888Z,13.85
2022-10-22T04:09:43.704Z,13.82
2022-10-22T04:10:23.752Z,13.79
2022-10-22T04:11:03.676Z,13.89
2022-10-22T04:11:51.057Z,13.92
2022-10-22T04:12:30.665Z,13.80
2022-10-22T04:13:13.904Z,13.83
2022-10-22T04:13:53.777Z,13.88
2022-10-22T04:14:33.805Z,13.85
2022-10-22T04:15:14.650Z,13.77
2022-10-22T04:15:54.741Z,13.77
2022-10-22T04:16:37.761Z,13.87
2022-10-22T04:17:17.814Z,13.97
2022-10-22T04:17:57.668Z,14.01
2022-10-22T04:18:37.808Z,14.02
2022-10-22T04:19:18.714Z,13.94
2022-10-22T04:19:58.729Z,13.96
2022-10-22T04:20:38.656Z,13.82
2022-10-22T04:21:20.720Z,13.88
2022-10-22T04:22:00.669Z,13.94
2022-10-22T04:22:43.034Z,13.94
2022-10-22T04:23:23.683Z,13.76
2022-10-22T04:24:03.727Z,13.91
2022-10-22T04:24:44.764Z,14.00
2022-10-22T04:25:24.754Z,13.97
2022-10-22T04:26:11.658Z,13.92
2022-10-22T04:26:51.760Z,13.93
2022-10-22T04:27:31.648Z,13.96
2022-10-22T04:28:16.745Z,13.77
2022-10-22T04:28:58.665Z,13.78
2022-10-22T04:29:38.760Z,13.95
2022-10-22T04:30:19.688Z,13.86
2022-10-22T04:31:04.512Z,13.91
2022-10-22T04:31:44.649Z,13.86
2022-10-22T04:32:24.717Z,13.87
2022-10-22T04:33:04.669Z,13.79
2022-10-22T04:33:44.739Z,13.75
2022-10-22T04:34:25.650Z,13.79
2022-10-22T04:35:11.807Z,13.73
2022-10-22T04:35:51.779Z,13.80
2022-10-22T04:36:52.704Z,13.82
2022-10-22T04:38:26.728Z,13.72
2022-10-22T04:39:11.717Z,13.76
2022-10-22T04:39:57.284Z,13.86
2022-10-22T04:40:38.628Z,13.67
2022-10-22T04:41:21.664Z,13.81
2022-10-22T04:41:56.182Z,13.72
2022-10-22T04:42:43.653Z,13.74
2022-10-22T04:43:20.681Z,13.84
2022-10-22T04:44:11.060Z,13.78
2022-10-22T04:44:53.728Z,13.74
2022-10-22T04:45:41.643Z,13.80
2022-10-22T04:46:16.733Z,13.81
2022-10-22T04:46:56.661Z,13.76
2022-10-22T04:47:44.342Z,13.83
2022-10-22T04:48:24.654Z,13.80
2022-10-22T04:49:05.785Z,13.76
2022-10-22T04:49:46.636Z,13.70
2022-10-22T04:50:26.774Z,13.69
2022-10-22T04:51:07.654Z,13.66
2022-10-22T04:51:47.734Z,13.72
2022-10-22T04:52:27.663Z,13.75
2022-10-22T04:53:07.714Z,13.78
2022-10-22T04:53:47.639Z,13.79
2022-10-22T04:54:30.514Z,13.77
2022-10-22T04:55:13.638Z,13.79
2022-10-22T04:55:53.718Z,13.70
2022-10-22T04:56:37.752Z,13.79
2022-10-22T04:57:31.669Z,13.85
2022-10-22T04:58:12.371Z,13.87
2022-10-22T04:59:07.632Z,13.91
2022-10-22T04:59:41.321Z,13.88
2022-10-22T05:00:29.649Z,13.86
2022-10-22T05:01:14.881Z,13.88
2022-10-22T05:02:01.654Z,13.83
2022-10-22T05:02:41.681Z,13.90
2022-10-22T05:03:21.707Z,13.88
2022-10-22T05:04:04.630Z,13.88
2022-10-22T05:04:44.685Z,13.84
2022-10-22T05:05:24.626Z,13.83
2022-10-22T05:06:08.806Z,13.89
2022-10-22T05:06:48.620Z,13.92
2022-10-22T05:07:28.666Z,13.83
2022-10-22T05:08:08.661Z,13.77
2022-10-22T05:08:48.788Z,13.79
2022-10-22T05:09:28.634Z,13.81
2022-10-22T05:10:09.697Z,13.84
2022-10-22T05:10:49.609Z,13.90
2022-10-22T05:11:33.995Z,13.94
2022-10-22T05:12:14.626Z,13.93
2022-10-22T05:12:54.688Z,13.93
2022-10-22T05:13:34.674Z,13.95
2022-10-22T05:14:15.701Z,14.06
2022-10-22T05:14:55.617Z,13.96
2022-10-22T05:15:36.760Z,13.94
2022-10-22T05:16:17.628Z,13.86
2022-10-22T05:16:59.693Z,13.84
2022-10-22T05:17:43.682Z,13.84
2022-10-22T05:18:23.699Z,13.84
2022-10-22T05:19:06.632Z,13.86
2022-10-22T05:19:46.683Z,13.91
2022-10-22T05:20:26.600Z,13.91
2022-10-22T05:21:07.688Z,13.89
2022-10-22T05:21:47.630Z,13.89
2022-10-22T05:22:27.780Z,13.94
2022-10-22T05:23:07.635Z,13.80
2022-10-22T05:23:48.817Z,13.75
2022-10-22T05:24:29.640Z,13.78
2022-10-22T05:25:12.150Z,13.79
2022-10-22T05:25:52.616Z,13.72
2022-10-22T05:26:35.658Z,13.75
2022-10-22T05:27:15.645Z,13.59
2022-10-22T05:27:58.406Z,13.74
2022-10-22T05:28:41.770Z,13.74
2022-10-22T05:29:21.753Z,13.69
2022-10-22T05:30:01.634Z,13.68
2022-10-22T05:30:41.679Z,13.70
2022-10-22T05:31:22.607Z,13.59
2022-10-22T05:32:03.669Z,13.67
2022-10-22T05:32:43.589Z,13.56
2022-10-22T05:33:24.197Z,13.51
2022-10-22T05:34:04.579Z,13.64
2022-10-22T05:34:44.665Z,13.53
2022-10-22T05:35:24.818Z,13.52
2022-10-22T05:36:05.712Z,13.53
2022-10-22T05:36:46.597Z,13.61
2022-10-22T05:37:27.739Z,13.58
2022-10-22T05:38:07.584Z,13.68
2022-10-22T05:38:47.685Z,13.73
2022-10-22T05:39:27.587Z,13.73
2022-10-22T05:40:19.162Z,13.76
2022-10-22T05:41:11.701Z,13.75
2022-10-22T05:41:53.961Z,13.65
2022-10-22T05:42:39.949Z,13.69
2022-10-22T05:43:20.720Z,13.66
2022-10-22T05:44:05.589Z,13.66
2022-10-22T05:44:45.668Z,13.71
2022-10-22T05:45:25.583Z,13.68
2022-10-22T05:46:23.069Z,13.58
2022-10-22T05:46:57.294Z,13.72
2022-10-22T05:47:45.594Z,13.68
2022-10-22T05:48:19.362Z,13.64
2022-10-22T05:49:17.597Z,13.69
2022-10-22T05:50:03.364Z,13.59
2022-10-22T05:50:58.761Z,13.51
2022-10-22T05:51:46.562Z,13.70
2022-10-22T05:52:27.634Z,13.61
2022-10-22T05:53:07.620Z,13.55
2022-10-22T05:53:49.629Z,13.62
2022-10-22T05:54:29.593Z,13.59
2022-10-22T05:55:10.682Z,13.45
2022-10-22T05:55:51.597Z,13.60
2022-10-22T05:56:33.704Z,13.65
2022-10-22T05:57:14.601Z,13.60
2022-10-22T05:57:54.703Z,13.63
2022-10-22T05:58:34.555Z,13.60
2022-10-22T05:59:17.696Z,13.55
2022-10-22T05:59:57.561Z,13.53
2022-10-22T06:00:37.738Z,13.59
2022-10-22T06:01:36.576Z,13.60
2022-10-22T06:02:26.650Z,13.54
2022-10-22T06:03:00.545Z,13.53
2022-10-22T06:03:51.315Z,13.51
2022-10-22T06:04:25.300Z,13.54
2022-10-22T06:05:14.630Z,13.58
2022-10-22T06:05:48.296Z,13.47
2022-10-22T06:07:02.574Z,13.48
2022-10-22T06:07:42.689Z,13.46
2022-10-22T06:08:22.639Z,13.53
2022-10-22T06:09:03.662Z,13.46
2022-10-22T06:09:43.663Z,13.59
2022-10-22T06:10:27.629Z,13.62
2022-10-22T06:11:07.612Z,13.68
2022-10-22T06:11:47.555Z,13.69
2022-10-22T06:12:30.674Z,13.77
2022-10-22T06:13:14.581Z,13.61
2022-10-22T06:13:58.686Z,13.60
2022-10-22T06:14:39.586Z,13.63
2022-10-22T06:15:21.692Z,13.69
2022-10-22T06:16:01.593Z,13.69
2022-10-22T06:16:41.690Z,13.59
2022-10-22T06:17:22.569Z,13.69
2022-10-22T06:18:02.628Z,13.73
2022-10-22T06:18:42.569Z,13.72
2022-10-22T06:19:32.210Z,13.72
2022-10-22T06:20:13.571Z,13.65
2022-10-22T06:20:53.671Z,13.65
2022-10-22T06:21:33.582Z,13.66
2022-10-22T06:22:14.618Z,13.73
2022-10-22T06:22:54.540Z,13.51
2022-10-22T06:23:34.644Z,13.62
2022-10-22T06:24:15.578Z,13.60
2022-10-22T06:24:55.697Z,13.60
2022-10-22T06:25:35.565Z,13.54
2022-10-22T06:26:17.823Z,13.58
2022-10-22T06:26:58.574Z,13.54
2022-10-22T06:27:39.623Z,13.42
2022-10-22T06:28:19.609Z,13.47
2022-10-22T06:29:00.658Z,13.52
2022-10-22T06:29:40.576Z,13.49
2022-10-22T06:30:27.828Z,13.51
2022-10-22T06:31:09.545Z,13.50
2022-10-22T06:31:49.596Z,13.45
2022-10-22T06:32:29.556Z,13.52
2022-10-22T06:33:09.634Z,13.56
2022-10-22T06:33:50.586Z,13.46
2022-10-22T06:34:33.414Z,13.54
2022-10-22T06:35:14.597Z,13.57
2022-10-22T06:35:54.685Z,13.47
2022-10-22T06:36:34.594Z,13.52
2022-10-22T06:37:16.673Z,13.64
2022-10-22T06:37:56.533Z,13.64
2022-10-22T06:38:36.585Z,13.62
2022-10-22T06:39:20.537Z,13.49
2022-10-22T06:40:00.605Z,13.66
2022-10-22T06:40:40.627Z,13.64
2022-10-22T06:41:25.587Z,13.64
2022-10-22T06:42:09.548Z,13.70
2022-10-22T06:42:49.606Z,13.64
2022-10-22T06:43:29.546Z,13.68
2022-10-22T06:44:09.614Z,13.62
2022-10-22T06:44:49.586Z,13.63
2022-10-22T06:45:29.580Z,13.75
2022-10-22T06:46:16.076Z,13.76
2022-10-22T06:46:59.925Z,13.79
2022-10-22T06:47:43.097Z,13.74
2022-10-22T06:48:23.612Z,13.80
2022-10-22T06:49:09.549Z,13.88
2022-10-22T06:49:50.029Z,13.81
2022-10-22T06:50:30.516Z,13.72
2022-10-22T06:51:20.549Z,13.86
2022-10-22T06:51:54.431Z,13.84
2022-10-22T06:52:41.568Z,13.91
2022-10-22T06:53:15.305Z,13.70
2022-10-22T06:54:03.538Z,13.78
2022-10-22T06:54:37.304Z,13.79
2022-10-22T06:55:25.521Z,13.83
2022-10-22T06:55:59.312Z,13.79
2022-10-22T06:56:40.566Z,13.75
2022-10-22T06:57:14.578Z,13.74
2022-10-22T06:57:48.218Z,13.79
2022-10-22T06:58:28.536Z,13.82
2022-10-22T06:59:03.617Z,13.89
2022-10-22T06:59:37.558Z,13.97
2022-10-22T07:00:18.644Z,13.96
2022-10-22T07:00:52.609Z,13.94
2022-10-22T07:01:33.280Z,13.78
2022-10-22T07:02:15.581Z,13.83
2022-10-22T07:02:49.596Z,13.88
2022-10-22T07:03:23.274Z,13.95
2022-10-22T07:04:04.491Z,13.97
2022-10-22T07:04:38.570Z,14.01
2022-10-22T07:05:13.229Z,14.00
2022-10-22T07:05:53.509Z,14.05
2022-10-22T07:06:29.631Z,14.07
2022-10-22T07:07:03.363Z,14.05
2022-10-22T07:07:43.525Z,14.09
2022-10-22T07:08:17.619Z,14.13
2022-10-22T07:08:51.851Z,14.09
2022-10-22T07:09:31.512Z,14.04
2022-10-22T07:10:05.569Z,13.93
2022-10-22T07:10:39.383Z,14.03
2022-10-22T07:11:32.514Z,13.99
2022-10-22T07:12:06.593Z,13.96
2022-10-22T07:12:40.485Z,14.07
2022-10-22T07:13:23.597Z,14.11
2022-10-22T07:13:58.632Z,14.14
2022-10-22T07:14:32.399Z,14.11
2022-10-22T07:15:13.545Z,14.11
2022-10-22T07:15:47.577Z,14.14
2022-10-22T07:16:21.359Z,14.09
2022-10-22T07:17:02.507Z,14.21
2022-10-22T07:17:36.593Z,14.18
2022-10-22T07:18:10.227Z,14.24
2022-10-22T07:18:51.600Z,14.23
2022-10-22T07:19:25.679Z,14.11
2022-10-22T07:20:00.691Z,14.17
2022-10-22T07:20:41.518Z,14.12
2022-10-22T07:21:17.888Z,14.16
2022-10-22T07:21:52.248Z,14.14
2022-10-22T07:22:33.488Z,14.14
2022-10-22T07:23:07.629Z,14.13
2022-10-22T07:23:41.339Z,14.15
2022-10-22T07:24:22.525Z,14.20
2022-10-22T07:24:56.549Z,14.13
2022-10-22T07:25:30.286Z,14.14
2022-10-22T07:26:13.513Z,14.19
2022-10-22T07:26:49.212Z,14.08
2022-10-22T07:27:23.470Z,14.00
2022-10-22T07:28:03.489Z,14.03
2022-10-22T07:28:39.708Z,14.06
2022-10-22T07:29:15.394Z,14.05
2022-10-22T07:29:55.515Z,14.00
2022-10-22T07:30:29.585Z,14.04
2022-10-22T07:31:03.520Z,14.10
2022-10-22T07:31:43.562Z,14.06
2022-10-22T07:32:22.839Z,14.16
2022-10-22T07:32:59.858Z,14.11
2022-10-22T07:33:40.642Z,13.93
2022-10-22T07:34:14.678Z,14.11
2022-10-22T07:34:48.833Z,14.16
2022-10-22T07:35:40.603Z,13.99
2022-10-22T07:36:26.247Z,14.02
2022-10-22T07:37:00.326Z,14.05
2022-10-22T07:37:50.883Z,14.03
2022-10-22T07:38:24.581Z,14.21
2022-10-22T07:38:59.830Z,14.15
2022-10-22T07:39:39.507Z,14.25
2022-10-22T07:40:14.647Z,14.27
2022-10-22T07:40:56.611Z,14.21
2022-10-22T07:41:37.705Z,14.23
2022-10-22T07:42:18.565Z,14.11
2022-10-22T07:42:58.716Z,14.23
2022-10-22T07:43:41.758Z,14.14
2022-10-22T07:44:29.592Z,14.03
2022-10-22T07:45:19.319Z,14.01
2022-10-22T07:46:13.663Z,14.02
2022-10-22T07:46:50.688Z,14.01
2022-10-22T07:47:37.643Z,14.08
2022-10-22T07:48:15.614Z,14.33
2022-10-22T07:49:03.563Z,14.24
2022-10-22T07:49:37.294Z,14.13
2022-10-22T07:50:24.630Z,14.16
2022-10-22T07:50:58.413Z,14.28
2022-10-22T07:51:47.016Z,14.38
2022-10-22T07:52:20.652Z,14.25
2022-10-22T07:52:58.276Z,14.08
2022-10-22T07:53:49.583Z,14.30
2022-10-22T07:54:23.566Z,14.38
2022-10-22T07:54:57.181Z,14.37
2022-10-22T07:55:37.478Z,14.44
2022-10-22T07:56:12.653Z,14.45
2022-10-22T07:56:53.538Z,14.39
2022-10-22T07:57:33.697Z,14.34
2022-10-22T07:58:14.760Z,14.38
2022-10-22T07:58:55.752Z,14.23
2022-10-22T07:59:35.627Z,14.25
2022-10-22T08:00:25.186Z,14.38
2022-10-22T08:01:23.604Z,14.46
2022-10-22T08:03:39.518Z,14.29
2022-10-22T08:04:20.734Z,14.49
2022-10-22T08:06:53.565Z,14.60
2022-10-22T08:07:30.386Z,14.55
2022-10-22T08:08:04.421Z,14.64
2022-10-22T08:08:44.593Z,14.50
2022-10-22T08:09:18.541Z,14.61
2022-10-22T08:09:53.255Z,14.67
2022-10-22T08:10:36.492Z,14.59
2022-10-22T08:11:10.593Z,14.58
2022-10-22T08:11:46.295Z,14.66
2022-10-22T08:12:27.523Z,14.65
2022-10-22T08:13:01.542Z,14.60
2022-10-22T08:13:35.249Z,14.72
2022-10-22T08:14:15.476Z,14.69
2022-10-22T08:14:49.554Z,14.67
2022-10-22T08:15:25.490Z,14.68
2022-10-22T08:16:07.454Z,14.71
2022-10-22T08:16:44.546Z,14.74
2022-10-22T08:17:18.220Z,14.70
2022-10-22T08:18:00.552Z,14.73
2022-10-22T08:18:35.570Z,14.74
2022-10-22T08:19:10.251Z,14.77
2022-10-22T08:19:55.467Z,14.80
2022-10-22T08:20:29.602Z,14.86
2022-10-22T08:21:03.433Z,14.89
2022-10-22T08:21:45.500Z,14.80
2022-10-22T08:22:19.503Z,14.82
2022-10-22T08:22:56.281Z,14.82
2022-10-22T08:23:37.524Z,14.83
2022-10-22T08:24:13.588Z,14.86
2022-10-22T08:24:50.445Z,14.93
2022-10-22T08:25:33.495Z,14.93
2022-10-22T08:26:07.624Z,14.95
2022-10-22T08:26:49.151Z,15.02
2022-10-22T08:27:30.840Z,15.05
2022-10-22T08:28:32.876Z,14.91
2022-10-22T08:29:16.985Z,14.97
2022-10-22T08:29:57.453Z,14.73
2022-10-22T08:30:45.525Z,14.97
2022-10-22T08:31:39.528Z,14.95
2022-10-22T08:32:33.552Z,15.04
2022-10-22T08:33:29.630Z,14.97
2022-10-22T08:34:23.441Z,15.10
2022-10-22T08:35:18.681Z,15.14
2022-10-22T08:36:05.480Z,15.24
2022-10-22T08:36:39.529Z,15.28
2022-10-22T08:37:26.624Z,15.23
2022-10-22T08:38:01.528Z,15.30
2022-10-22T08:38:53.469Z,15.25
2022-10-22T08:39:27.653Z,15.18
2022-10-22T08:40:16.424Z,15.19
2022-10-22T08:40:55.569Z,15.18
2022-10-22T08:41:36.466Z,15.10
2022-10-22T08:43:08.636Z,15.06
2022-10-22T08:44:00.450Z,15.15
2022-10-22T08:45:29.478Z,15.07
2022-10-22T08:46:51.552Z,15.12
2022-10-22T08:48:01.478Z,14.96
2022-10-22T08:49:01.459Z,14.99
2022-10-22T08:49:45.522Z,14.98
2022-10-22T08:50:44.477Z,15.01
2022-10-22T08:51:34.579Z,15.07
2022-10-22T08:52:23.601Z,15.09
2022-10-22T08:53:05.557Z,15.04
2022-10-22T08:53:56.416Z,15.09
2022-10-22T08:55:13.608Z,15.21
2022-10-22T08:55:54.426Z,15.14
2022-10-22T08:56:35.534Z,15.12
2022-10-22T08:57:15.419Z,15.09
2022-10-22T08:58:12.486Z,15.10
2022-10-22T08:59:04.717Z,15.11
2022-10-22T08:59:59.438Z,15.07
2022-10-22T09:00:49.508Z,15.17
2022-10-22T09:01:44.443Z,15.15
2022-10-22T09:02:41.919Z,15.29
2022-10-22T09:04:03.441Z,15.35
2022-10-22T09:04:48.892Z,15.27
2022-10-22T09:06:12.442Z,15.31
2022-10-22T09:06:49.585Z,15.35
2022-10-22T09:07:39.866Z,15.40
2022-10-22T09:08:19.563Z,15.32
2022-10-22T09:09:08.469Z,15.29
2022-10-22T09:09:49.723Z,15.31
2022-10-22T09:10:41.656Z,15.10
2022-10-22T09:11:40.568Z,15.28
2022-10-22T09:12:29.587Z,15.29
2022-10-22T09:13:04.899Z,15.33
2022-10-22T09:13:55.527Z,15.34
2022-10-22T09:14:39.640Z,15.40
2022-10-22T09:15:34.438Z,15.43
2022-10-22T09:16:48.541Z,15.39
2022-10-22T09:17:59.441Z,15.50
2022-10-22T09:19:31.457Z,15.59
2022-10-22T09:20:33.415Z,15.58
2022-10-22T09:21:54.477Z,15.72
2022-10-22T09:22:42.408Z,15.74
2022-10-22T09:24:07.608Z,15.55
2022-10-22T09:24:56.395Z,15.69
2022-10-22T09:25:47.441Z,15.58
2022-10-22T09:26:42.784Z,15.69
2022-10-22T09:27:42.721Z,15.79
2022-10-22T09:28:37.413Z,15.75
2022-10-22T09:29:36.428Z,15.80
2022-10-22T09:30:41.401Z,15.73
2022-10-22T09:31:23.429Z,15.66
2022-10-22T09:32:03.514Z,15.65
2022-10-22T09:32:44.398Z,15.76
2022-10-22T09:33:35.483Z,15.78
2022-10-22T09:34:15.384Z,15.81
2022-10-22T09:34:56.442Z,15.88
2022-10-22T09:35:42.462Z,15.92
2022-10-22T09:36:34.533Z,15.89
2022-10-22T09:37:32.475Z,15.95
2022-10-22T09:38:29.447Z,16.01
2022-10-22T09:39:47.407Z,16.09
2022-10-22T09:40:41.456Z,16.10
2022-10-22T09:41:40.433Z,16.04
2022-10-22T09:42:35.441Z,16.03
2022-10-22T09:43:33.396Z,16.02
2022-10-22T09:44:27.404Z,16.16